Latest Weather Observations for Moruya Airport

IDN60901

Issued at 2:51 pm EST Monday 31 August 2015 (issued every 10 minutes, with the page automatically refreshed every 10 minutes)

About weather observations | Map of Canberra area stations | Latest observations for Canberra area | Other Formats
Station Details ID: 069148 Name: MORUYA AIRPORT AWS Lat: -35.90 Lon: 150.14 Height: 4.0 m
Data from the previous 72 hours. | See also: Recent months at Moruya Airport
Date/Time
EST
Tmp

°C
App
Tmp
°C
Dew
Point
°C
Rel
Hum
%
Delta-T

°C
Wind Press
QNH
hPa
Press
MSL
hPa
Rain
since
9 am
mm
Dir
 
Spd
km/h
Gust
km/h
Spd
kts
Gust
kts
31/02:30pm 16.8 12.7 7.7 55 4.6 SE 19 24 10 13 1014.2 1014.2 0.0
31/02:00pm 17.0 13.4 8.4 57 4.4 ESE 17 24 9 13 1014.3 1014.3 0.0
31/01:30pm 17.1 13.3 7.7 54 4.7 ESE 17 22 9 12 1014.5 1014.5 0.0
31/01:00pm 17.8 14.6 6.7 48 5.5 SSW 13 24 7 13 1014.8 1014.8 0.0
31/12:30pm 17.5 14.3 6.7 49 5.4 SSW 13 20 7 11 1015.2 1015.2 0.0
31/12:00pm 17.0 13.3 6.2 49 5.3 S 15 24 8 13 1015.6 1015.6 0.0
31/11:30am 16.6 12.5 6.4 51 5.0 S 17 22 9 12 1016.0 1016.0 0.0
31/11:00am 16.7 12.7 6.5 51 5.0 SW 17 26 9 14 1016.5 1016.5 0.0
31/10:30am 15.6 12.6 6.1 53 4.6 WSW 11 15 6 8 1016.7 1016.7 0.0
31/10:00am 15.0 12.0 6.0 55 4.3 W 11 13 6 7 1017.0 1017.0 0.0
31/09:30am 13.2 10.0 5.1 58 3.8 WNW 11 17 6 9 1017.4 1017.4 0.0
31/09:00am 11.7 8.9 5.1 64 3.0 W 9 15 5 8 1017.5 1017.5 0.0
31/08:30am 10.6 8.1 6.6 76 1.9 WSW 9 13 5 7 1017.4 1017.4 0.0
31/08:00am 8.1 5.9 6.1 87 0.9 WSW 7 11 4 6 1017.6 1017.6 0.0
31/07:30am 6.5 4.2 5.6 94 0.4 WSW 7 11 4 6 1017.6 1017.6 0.0
31/07:00am 4.6 2.1 4.5 99 0.0 WSW 7 9 4 5 1017.5 1017.5 0.0
31/06:30am 3.4 0.6 3.4 100 0.0 W 7 11 4 6 1017.3 1017.3 0.0
31/06:00am 3.1 0.3 3.1 100 0.0 SW 7 9 4 5 1017.2 1017.2 0.0
31/05:30am 2.9 0.1 2.9 100 0.0 WSW 7 11 4 6 1017.2 1017.2 0.0
31/05:00am 3.5 1.0 3.5 100 0.0 WSW 6 9 3 5 1017.1 1017.1 0.0
31/04:30am 3.9 1.4 3.9 100 0.0 W 6 7 3 4 1017.1 1017.1 0.0
31/04:00am 4.2 1.6 4.2 100 0.0 WSW 7 9 4 5 1017.1 1017.1 0.0
31/03:30am 3.9 1.2 3.9 100 0.0 WSW 7 9 4 5 1017.2 1017.2 0.0
31/03:00am 4.3 1.9 4.2 99 0.0 W 6 7 3 4 1017.5 1017.5 0.0
31/02:30am 5.0 2.2 5.0 100 0.0 WSW 9 11 5 6 1017.9 1017.9 0.0
31/02:00am 4.8 1.9 4.8 100 0.0 WSW 9 11 5 6 1018.4 1018.4 0.0
31/01:30am 4.8 1.5 4.8 100 0.0 WSW 11 15 6 8 1018.6 1018.6 0.0
31/01:00am 3.9 1.2 3.9 100 0.0 W 7 9 4 5 1019.0 1019.0 0.0
31/12:30am 4.7 2.4 4.7 100 0.0 W 6 9 3 5 1019.2 1019.2 0.0
31/12:00am 4.9 3.0 4.9 100 0.0 WNW 4 6 2 3 1019.0 1019.0 0.0
 
Date/Time
EST
Tmp

°C
App
Tmp
°C
Dew
Point
°C
Rel
Hum
%
Delta-T

°C
Wind Press
QNH
hPa
Press
MSL
hPa
Rain
since
9 am
mm
Dir
 
Spd
km/h
Gust
km/h
Spd
kts
Gust
kts
30/11:30pm 5.0 2.7 5.0 100 0.0 W 6 7 3 4 1019.1 1019.1 0.0
30/11:00pm 6.2 3.6 6.2 100 0.0 SW 9 11 5 6 1019.1 1019.1 0.0
30/10:30pm 6.8 4.0 6.8 100 0.0 SW 11 17 6 9 1019.4 1019.4 0.0
30/10:00pm 6.6 3.7 6.6 100 0.0 SW 11 15 6 8 1019.8 1019.8 0.0
30/09:30pm 7.3 4.9 7.2 99 0.0 SW 9 11 5 6 1019.9 1019.9 0.0
30/09:00pm 8.3 6.2 6.6 89 0.8 WSW 7 9 4 5 1019.9 1019.9 0.0
30/08:30pm 9.2 6.9 7.3 88 0.9 SW 9 15 5 8 1019.8 1019.8 0.0
30/08:00pm 9.6 7.0 7.9 89 0.8 SW 11 13 6 7 1019.5 1019.5 0.0
30/07:30pm 10.0 6.9 7.4 84 1.2 SW 13 17 7 9 1019.1 1019.1 0.0
30/07:00pm 9.7 7.5 8.0 89 0.8 SW 9 11 5 6 1019.1 1019.1 0.0
30/06:30pm 10.2 8.4 8.1 87 1.0 WSW 7 9 4 5 1018.9 1018.9 0.0
30/06:00pm 11.2 9.0 7.7 79 1.7 SW 9 11 5 6 1018.7 1018.7 0.0
30/05:30pm 12.7 10.3 7.2 69 2.7 SW 9 13 5 7 1018.5 1018.5 0.0
30/05:00pm 14.1 10.5 6.7 61 3.6 SSW 15 20 8 11 1018.4 1018.4 0.0
30/04:30pm 14.8 11.7 7.4 61 3.6 SSW 13 17 7 9 1018.2 1018.2 0.0
30/04:00pm 15.1 11.2 6.9 58 4.0 SSW 17 22 9 12 1018.1 1018.1 0.0
30/03:30pm 15.6 11.7 6.9 56 4.3 SW 17 28 9 15 1018.1 1018.1 0.0
30/03:00pm 15.7 13.4 7.5 58 4.1 SW 9 13 5 7 1018.1 1018.1 0.0
30/02:30pm 15.8 12.2 6.8 55 4.4 SSW 15 20 8 11 1018.2 1018.2 0.0
30/02:00pm 16.2 12.4 7.4 56 4.4 SW 17 20 9 11 1018.3 1018.3 0.0
30/01:30pm 16.1 11.8 7.1 55 4.5 SW 19 24 10 13 1018.4 1018.4 0.0
30/01:00pm 16.1 12.1 6.8 54 4.6 SW 17 22 9 12 1018.6 1018.6 0.0
30/12:30pm 15.5 11.6 7.3 58 4.1 SSW 17 24 9 13 1018.8 1018.8 0.0
30/12:00pm 17.0 14.0 7.6 54 4.7 SSW 13 19 7 10 1019.0 1019.0 0.0
30/11:30am 16.4 12.5 7.1 54 4.6 SW 17 24 9 13 1019.6 1019.6 0.0
30/11:00am 16.0 13.0 7.5 57 4.2 S 13 19 7 10 1019.8 1019.8 0.0
30/10:30am 15.7 12.7 7.7 59 4.0 S 13 22 7 12 1020.1 1020.1 0.0
30/10:00am 15.1 12.0 7.4 60 3.8 SSW 13 17 7 9 1020.1 1020.1 0.0
30/09:30am 13.9 11.7 7.7 66 3.1 SW 9 13 5 7 1020.3 1020.3 0.0
30/09:00am 12.3 10.6 8.4 77 1.9 W 7 9 4 5 1020.3 1020.3 0.0
30/08:30am 9.9 8.4 9.0 94 0.4 SW 7 9 4 5 1020.2 1020.2 0.0
30/08:00am 9.0 7.0 8.7 98 0.1 SW 9 11 5 6 1020.0 1020.0 0.0
30/07:30am 7.9 7.0 7.9 100 0.0 WSW 2 9 1 5 1019.8 1019.8 0.0
30/07:00am 6.8 5.3 6.8 100 0.0 WSW 4 7 2 4 1019.6 1019.6 0.0
30/06:30am 6.2 4.9 6.2 100 0.0 SW 2 7 1 4 1019.4 1019.4 0.0
30/06:00am 6.0 5.1 6.0 100 0.0 CALM 0 0 0 0 1019.3 1019.3 0.0
30/05:30am 5.9 3.8 5.9 100 0.0 SW 6 7 3 4 1019.3 1019.3 0.0
30/05:00am 6.0 4.3 6.0 100 0.0 WNW 4 7 2 4 1019.2 1019.2 0.0
30/04:30am 5.9 4.2 5.9 100 0.0 W 4 9 2 5 1019.3 1019.3 0.0
30/04:00am 5.5 4.5 5.5 100 0.0 CALM 0 0 0 0 1019.3 1019.3 0.0
30/03:30am 4.7 3.5 4.7 100 0.0 CALM 0 0 0 0 1019.3 1019.3 0.0
30/03:00am 4.9 3.8 4.9 100 0.0 CALM 0 2 0 1 1019.5 1019.5 0.0
30/02:30am 5.0 2.7 5.0 100 0.0 W 6 9 3 5 1019.6 1019.6 0.0
30/02:00am 5.9 3.4 5.0 94 0.4 W 7 11 4 6 1019.9 1019.9 0.0
30/01:30am 7.3 4.7 5.9 91 0.6 W 9 13 5 7 1020.3 1020.3 0.0
30/01:00am 7.0 4.1 6.7 98 0.1 WSW 11 15 6 8 1020.7 1020.7 0.0
30/12:30am 5.1 2.3 5.1 100 0.0 W 9 11 5 6 1020.9 1020.9 0.0
30/12:00am 5.3 2.5 5.3 100 0.0 WNW 9 13 5 7 1020.8 1020.8 0.0
 
Date/Time
EST
Tmp

°C
App
Tmp
°C
Dew
Point
°C
Rel
Hum
%
Delta-T

°C
Wind Press
QNH
hPa
Press
MSL
hPa
Rain
since
9 am
mm
Dir
 
Spd
km/h
Gust
km/h
Spd
kts
Gust
kts
29/11:30pm 6.2 3.6 6.2 100 0.0 WSW 9 9 5 5 1020.7 1020.7 0.0
29/11:00pm 5.9 3.6 5.9 100 0.0 WSW 7 9 4 5 1020.6 1020.6 0.0
29/10:30pm 6.4 4.4 6.4 100 0.0 WSW 6 9 3 5 1020.5 1020.5 0.0
29/10:00pm 5.6 2.9 5.6 100 0.0 WSW 9 13 5 7 1020.1 1020.1 0.0
29/09:30pm 6.1 4.1 6.1 100 0.0 WSW 6 7 3 4 1020.1 1020.1 0.0
29/09:00pm 6.6 4.5 6.6 100 0.0 W 7 9 4 5 1020.0 1020.0 0.0
29/08:30pm 6.0 3.8 6.0 100 0.0 W 7 11 4 6 1019.8 1019.8 0.0
29/08:00pm 7.2 5.8 7.2 100 0.0 W 4 9 2 5 1019.7 1019.7 0.0
29/07:30pm 7.4 6.0 7.4 100 0.0 NW 4 7 2 4 1019.6 1019.6 0.0
29/07:00pm 8.0 6.2 8.0 100 0.0 W 7 11 4 6 1019.5 1019.5 0.0
29/06:30pm 8.4 6.7 8.4 100 0.0 WSW 7 11 4 6 1019.3 1019.3 0.0
29/06:00pm 9.6 8.7 9.1 97 0.2 W 4 7 2 4 1019.1 1019.1 0.0
29/05:30pm 11.4 9.9 8.6 83 1.4 WSW 6 7 3 4 1018.6 1018.6 0.0
29/05:00pm 14.2 12.2 7.3 63 3.4 SE 7 11 4 6 1018.3 1018.3 0.0
29/04:30pm 14.8 12.2 7.6 62 3.6 SE 11 17 6 9 1018.2 1018.2 0.0
29/04:00pm 15.0 12.3 8.9 67 3.1 ESE 13 17 7 9 1017.9 1017.9 0.0
29/03:30pm 15.5 12.8 9.0 65 3.3 E 13 17 7 9 1017.7 1017.7 0.0
29/03:00pm 15.7 13.0 8.9 64 3.5 ENE 13 15 7 8 1017.7 1017.7 0.0
29/02:30pm 15.3 12.8 9.7 69 2.9 NE 13 17 7 9 1017.7 1017.7 0.0
29/02:00pm 15.3 13.0 10.5 73 2.5 NE 13 17 7 9 1017.7 1017.7 0.0
29/01:30pm 14.6 11.7 9.8 73 2.5 ENE 15 19 8 10 1018.1 1018.1 0.0
29/01:00pm 14.6 12.0 9.2 70 2.8 E 13 15 7 8 1018.5 1018.5 0.0
29/12:30pm 13.7 11.0 9.0 73 2.4 ESE 13 19 7 10 1019.0 1019.0 0.0
29/12:00pm 14.0 10.6 9.2 73 2.4 E 17 20 9 11 1019.6 1019.6 0.0
29/11:30am 14.2 11.8 10.0 76 2.2 E 13 15 7 8 1020.2 1020.2 0.0
29/11:00am 13.7 12.3 9.4 75 2.2 SSE 7 11 4 6 1020.6 1020.6 0.0
29/10:30am 13.1 11.7 8.8 75 2.2 NW 6 11 3 6 1021.0 1021.0 0.0
29/10:00am 12.3 9.2 9.0 80 1.6 SW 15 20 8 11 1021.5 1021.5 0.0
29/09:30am 11.2 9.0 9.5 89 0.9 SSW 11 20 6 11 1021.9 1021.9 0.0
29/09:00am 10.5 9.6 10.5 100 0.0 SW 6 9 3 5 1022.0 1022.0 1.2
29/08:30am 9.9 8.8 9.9 100 0.0 WSW 6 9 3 5 1021.9 1021.9 1.2
29/08:00am 9.1 7.8 9.1 100 0.0 SW 6 11 3 6 1021.8 1021.8 1.2
29/07:30am 8.4 7.7 8.4 100 0.0 W 2 7 1 4 1021.8 1021.8 1.2
29/07:00am 8.4 7.7 8.4 100 0.0 WSW 2 6 1 3 1021.5 1021.5 1.2
29/06:30am 8.2 6.6 8.2 100 0.0 SW 6 11 3 6 1021.4 1021.4 1.2
29/06:00am 8.4 6.7 8.4 100 0.0 SW 7 13 4 7 1021.2 1021.2 1.2
29/05:37am 7.3 5.3 7.3 100 0.0 W 7 9 4 5 1021.0 1021.0 1.2
29/05:30am 6.9 4.9 6.9 100 0.0 WNW 7 11 4 6 1021.1 1021.1 1.2
29/05:10am 7.2 5.4 7.2 100 0.0 W 6 6 3 3 1021.1 1021.1 1.2
29/05:00am 7.5 5.8 7.5 100 0.0 W 6 7 3 4 1021.1 1021.1 1.2
29/04:30am 8.1 7.3 8.1 100 0.0 W 2 6 1 3 1021.2 1021.2 1.2
29/04:00am 8.6 7.1 8.6 100 0.0 W 6 7 3 4 1021.2 1021.2 1.2
29/03:30am 8.9 8.3 8.9 100 0.0 W 2 6 1 3 1021.3 1021.3 1.2
29/03:00am 8.9 8.3 8.9 100 0.0 W 2 6 1 3 1021.6 1021.6 1.2
29/02:30am 8.8 7.4 8.8 100 0.0 NW 6 7 3 4 1022.0 1022.0 1.2
29/02:00am 8.9 7.5 8.9 100 0.0 NW 6 7 3 4 1022.2 1022.2 1.2
29/01:30am 9.2 7.7 9.2 100 0.0 WNW 7 11 4 6 1022.3 1022.3 1.2
29/01:00am 9.5 8.1 9.5 100 0.0 WNW 7 9 4 5 1022.5 1022.5 1.2
29/12:30am 9.5 8.3 9.5 100 0.0 W 6 9 3 5 1022.6 1022.6 1.2
29/12:00am 9.7 8.0 9.7 100 0.0 SW 9 11 5 6 1022.7 1022.7 0.4
 
Date/Time
EST
Tmp

°C
App
Tmp
°C
Dew
Point
°C
Rel
Hum
%
Delta-T

°C
Wind Press
QNH
hPa
Press
MSL
hPa
Rain
since
9 am
mm
Dir
 
Spd
km/h
Gust
km/h
Spd
kts
Gust
kts
28/11:30pm 9.9 8.8 9.9 100 0.0 WNW 6 7 3 4 1022.8 1022.8 0.2
28/11:00pm 9.8 8.4 9.5 98 0.1 WSW 7 7 4 4 1022.8 1022.8 0.2
28/10:30pm 10.9 8.6 9.0 88 0.9 SSW 11 15 6 8 1022.9 1022.9 0.2
28/10:00pm 11.1 8.9 9.2 88 0.9 SW 11 15 6 8 1023.0 1023.0 0.2
28/09:30pm 11.1 8.9 9.5 90 0.8 SW 11 17 6 9 1022.9 1022.9 0.2
28/09:00pm 11.5 9.4 9.8 89 0.9 SW 11 17 6 9 1022.7 1022.7 0.2
28/08:30pm 11.8 9.1 10.4 91 0.7 SSW 15 22 8 12 1022.6 1022.6 0.2
28/08:00pm 11.8 9.1 10.5 92 0.7 SSW 15 20 8 11 1022.1 1022.1 0.2
28/07:30pm 12.1 10.6 10.5 90 0.8 SSW 9 17 5 9 1021.8 1021.8 0.2
28/07:00pm 12.4 10.2 10.8 90 0.8 SSW 13 20 7 11 1021.6 1021.6 0.2
28/06:30pm 12.5 9.7 11.2 92 0.7 S 17 24 9 13 1021.2 1021.2 0.2
28/06:00pm 12.9 9.7 11.3 90 0.8 S 19 30 10 16 1020.9 1020.9 0.2
28/05:30pm 13.5 10.5 11.9 90 0.9 S 19 26 10 14 1020.4 1020.4 0.2
28/05:00pm 13.4 12.0 12.1 92 0.7 S 11 15 6 8 1020.1 1020.1 0.2
28/04:30pm 14.3 12.2 12.5 89 1.0 S 15 20 8 11 1019.8 1019.8 0.2
28/04:00pm 13.9 11.1 12.6 92 0.7 SSE 19 28 10 15 1019.6 1019.6 0.2
28/03:30pm 13.3 11.0 13.0 98 0.2 SSE 17 20 9 11 1019.3 1019.3 0.2
28/03:00pm 15.1 11.9 11.9 81 1.7 S 20 30 11 16 1019.2 1019.2 0.0

Latest Capital City Observations: Canberra | Sydney | Melbourne | Brisbane | Adelaide | Perth | Hobart | Darwin

Other Formats:

Comma delimited format used in spreadsheet applications
http://www.bom.gov.au/fwo/IDN60903/IDN60903.95937.axf

JavaScript Object Notation format (JSON) in row-major order
http://www.bom.gov.au/fwo/IDN60903/IDN60903.95937.json